sensor_id;sensor_type;location;lat;lon;timestamp;P1;durP1;ratioP1;P2;durP2;ratioP2
25717;SDS011;13574;52.040;5.692;2023-02-07T00:00:04;19.13;;;6.80;;
25717;SDS011;13574;52.040;5.692;2023-02-07T00:02:33;21.50;;;7.35;;
25717;SDS011;13574;52.040;5.692;2023-02-07T00:04:59;24.02;;;7.28;;
25717;SDS011;13574;52.040;5.692;2023-02-07T00:07:25;27.58;;;7.03;;
25717;SDS011;13574;52.040;5.692;2023-02-07T00:09:51;27.08;;;8.52;;
25717;SDS011;13574;52.040;5.692;2023-02-07T00:12:16;27.60;;;7.68;;
25717;SDS011;13574;52.040;5.692;2023-02-07T00:14:42;27.65;;;8.18;;
25717;SDS011;13574;52.040;5.692;2023-02-07T00:17:08;22.08;;;8.15;;
25717;SDS011;13574;52.040;5.692;2023-02-07T00:19:33;27.67;;;8.45;;
25717;SDS011;13574;52.040;5.692;2023-02-07T00:21:59;24.88;;;8.25;;
25717;SDS011;13574;52.040;5.692;2023-02-07T00:24:25;26.85;;;9.13;;
25717;SDS011;13574;52.040;5.692;2023-02-07T00:26:51;26.38;;;8.43;;
25717;SDS011;13574;52.040;5.692;2023-02-07T00:29:20;25.75;;;9.35;;
25717;SDS011;13574;52.040;5.692;2023-02-07T00:31:46;26.35;;;9.63;;
25717;SDS011;13574;52.040;5.692;2023-02-07T00:34:12;26.65;;;9.73;;
25717;SDS011;13574;52.040;5.692;2023-02-07T00:36:39;34.15;;;9.80;;
25717;SDS011;13574;52.040;5.692;2023-02-07T00:39:06;33.15;;;10.07;;
25717;SDS011;13574;52.040;5.692;2023-02-07T00:41:35;29.65;;;10.63;;
25717;SDS011;13574;52.040;5.692;2023-02-07T00:44:00;38.60;;;10.90;;
25717;SDS011;13574;52.040;5.692;2023-02-07T00:46:26;31.85;;;11.00;;
25717;SDS011;13574;52.040;5.692;2023-02-07T00:48:52;37.38;;;10.10;;
25717;SDS011;13574;52.040;5.692;2023-02-07T00:51:18;29.83;;;10.15;;
25717;SDS011;13574;52.040;5.692;2023-02-07T00:53:44;31.48;;;10.70;;
25717;SDS011;13574;52.040;5.692;2023-02-07T00:56:10;32.33;;;10.65;;
25717;SDS011;13574;52.040;5.692;2023-02-07T00:58:36;24.60;;;10.35;;
25717;SDS011;13574;52.040;5.692;2023-02-07T01:01:03;26.35;;;10.48;;
25717;SDS011;13574;52.040;5.692;2023-02-07T01:03:30;27.10;;;9.90;;
25717;SDS011;13574;52.040;5.692;2023-02-07T01:05:56;29.95;;;11.02;;
25717;SDS011;13574;52.040;5.692;2023-02-07T01:08:21;30.02;;;11.55;;
25717;SDS011;13574;52.040;5.692;2023-02-07T01:10:47;32.25;;;11.82;;
25717;SDS011;13574;52.040;5.692;2023-02-07T01:13:13;26.67;;;11.23;;
25717;SDS011;13574;52.040;5.692;2023-02-07T01:15:40;30.50;;;11.40;;
25717;SDS011;13574;52.040;5.692;2023-02-07T01:18:08;27.40;;;11.52;;
25717;SDS011;13574;52.040;5.692;2023-02-07T01:20:34;32.40;;;10.98;;
25717;SDS011;13574;52.040;5.692;2023-02-07T01:23:01;28.15;;;11.50;;
25717;SDS011;13574;52.040;5.692;2023-02-07T01:25:27;29.13;;;12.20;;
25717;SDS011;13574;52.040;5.692;2023-02-07T01:27:53;36.78;;;12.70;;
25717;SDS011;13574;52.040;5.692;2023-02-07T01:30:19;39.13;;;12.77;;
25717;SDS011;13574;52.040;5.692;2023-02-07T01:32:45;26.73;;;10.70;;
25717;SDS011;13574;52.040;5.692;2023-02-07T01:35:10;33.45;;;10.77;;
25717;SDS011;13574;52.040;5.692;2023-02-07T01:37:36;35.50;;;12.32;;
25717;SDS011;13574;52.040;5.692;2023-02-07T01:40:02;28.33;;;10.88;;
25717;SDS011;13574;52.040;5.692;2023-02-07T01:42:28;32.85;;;11.57;;
25717;SDS011;13574;52.040;5.692;2023-02-07T01:47:30;29.92;;;10.52;;
25717;SDS011;13574;52.040;5.692;2023-02-07T01:49:57;32.03;;;11.55;;
25717;SDS011;13574;52.040;5.692;2023-02-07T01:52:34;30.00;;;12.07;;
25717;SDS011;13574;52.040;5.692;2023-02-07T01:55:05;24.05;;;7.68;;
25717;SDS011;13574;52.040;5.692;2023-02-07T01:57:33;28.23;;;11.60;;
25717;SDS011;13574;52.040;5.692;2023-02-07T02:00:00;25.50;;;11.13;;
25717;SDS011;13574;52.040;5.692;2023-02-07T02:02:27;29.25;;;11.65;;
25717;SDS011;13574;52.040;5.692;2023-02-07T02:04:55;35.75;;;13.23;;
25717;SDS011;13574;52.040;5.692;2023-02-07T02:07:23;39.03;;;13.60;;
25717;SDS011;13574;52.040;5.692;2023-02-07T02:09:50;38.35;;;14.35;;
25717;SDS011;13574;52.040;5.692;2023-02-07T02:12:24;40.22;;;15.15;;
25717;SDS011;13574;52.040;5.692;2023-02-07T02:18:06;35.60;;;13.65;;
25717;SDS011;13574;52.040;5.692;2023-02-07T02:23:35;41.42;;;13.77;;
25717;SDS011;13574;52.040;5.692;2023-02-07T02:37:25;30.00;;;12.20;;
25717;SDS011;13574;52.040;5.692;2023-02-07T02:40:06;36.13;;;12.85;;
25717;SDS011;13574;52.040;5.692;2023-02-07T02:42:36;30.90;;;11.40;;
25717;SDS011;13574;52.040;5.692;2023-02-07T02:45:25;28.55;;;11.55;;
25717;SDS011;13574;52.040;5.692;2023-02-07T02:47:55;26.00;;;12.32;;
25717;SDS011;13574;52.040;5.692;2023-02-07T02:50:23;35.13;;;12.93;;
25717;SDS011;13574;52.040;5.692;2023-02-07T02:52:51;29.08;;;11.88;;
25717;SDS011;13574;52.040;5.692;2023-02-07T02:55:17;28.85;;;12.75;;
25717;SDS011;13574;52.040;5.692;2023-02-07T03:11:35;31.55;;;12.27;;
25717;SDS011;13574;52.040;5.692;2023-02-07T03:19:42;35.40;;;13.35;;
25717;SDS011;13574;52.040;5.692;2023-02-07T03:22:18;30.83;;;12.52;;
25717;SDS011;13574;52.040;5.692;2023-02-07T03:24:47;26.55;;;12.23;;
25717;SDS011;13574;52.040;5.692;2023-02-07T03:27:17;29.70;;;11.85;;
25717;SDS011;13574;52.040;5.692;2023-02-07T03:29:46;25.52;;;10.95;;
25717;SDS011;13574;52.040;5.692;2023-02-07T03:32:16;29.27;;;11.68;;
25717;SDS011;13574;52.040;5.692;2023-02-07T03:37:20;28.13;;;12.13;;
25717;SDS011;13574;52.040;5.692;2023-02-07T03:39:47;22.92;;;10.55;;
25717;SDS011;13574;52.040;5.692;2023-02-07T03:42:34;24.48;;;10.85;;
25717;SDS011;13574;52.040;5.692;2023-02-07T03:45:04;25.48;;;11.82;;
25717;SDS011;13574;52.040;5.692;2023-02-07T03:47:32;25.73;;;10.50;;
25717;SDS011;13574;52.040;5.692;2023-02-07T03:49:58;24.05;;;11.60;;
25717;SDS011;13574;52.040;5.692;2023-02-07T03:52:24;26.13;;;11.65;;
25717;SDS011;13574;52.040;5.692;2023-02-07T03:54:49;26.02;;;11.55;;
25717;SDS011;13574;52.040;5.692;2023-02-07T03:57:15;25.27;;;11.68;;
25717;SDS011;13574;52.040;5.692;2023-02-07T03:59:40;33.22;;;13.38;;
25717;SDS011;13574;52.040;5.692;2023-02-07T04:02:06;35.65;;;13.25;;
25717;SDS011;13574;52.040;5.692;2023-02-07T04:04:32;33.63;;;13.85;;
25717;SDS011;13574;52.040;5.692;2023-02-07T04:06:58;29.15;;;12.40;;
25717;SDS011;13574;52.040;5.692;2023-02-07T04:09:23;29.00;;;13.20;;
25717;SDS011;13574;52.040;5.692;2023-02-07T04:11:49;29.65;;;13.48;;
25717;SDS011;13574;52.040;5.692;2023-02-07T04:14:16;33.08;;;13.20;;
25717;SDS011;13574;52.040;5.692;2023-02-07T04:16:44;37.92;;;14.02;;
25717;SDS011;13574;52.040;5.692;2023-02-07T04:19:11;40.90;;;15.43;;
25717;SDS011;13574;52.040;5.692;2023-02-07T04:21:36;41.22;;;16.10;;
25717;SDS011;13574;52.040;5.692;2023-02-07T04:24:03;41.90;;;16.00;;
25717;SDS011;13574;52.040;5.692;2023-02-07T04:26:29;42.08;;;16.70;;
25717;SDS011;13574;52.040;5.692;2023-02-07T04:28:54;37.67;;;15.75;;
25717;SDS011;13574;52.040;5.692;2023-02-07T04:31:20;48.63;;;16.67;;
25717;SDS011;13574;52.040;5.692;2023-02-07T04:33:46;41.50;;;17.00;;
25717;SDS011;13574;52.040;5.692;2023-02-07T04:36:12;36.63;;;16.70;;
25717;SDS011;13574;52.040;5.692;2023-02-07T04:38:38;39.55;;;15.23;;
25717;SDS011;13574;52.040;5.692;2023-02-07T04:41:04;36.10;;;14.52;;
25717;SDS011;13574;52.040;5.692;2023-02-07T04:43:34;28.88;;;12.98;;
25717;SDS011;13574;52.040;5.692;2023-02-07T04:46:02;32.70;;;14.40;;
25717;SDS011;13574;52.040;5.692;2023-02-07T04:48:29;38.20;;;15.48;;
25717;SDS011;13574;52.040;5.692;2023-02-07T04:50:55;34.42;;;13.93;;
25717;SDS011;13574;52.040;5.692;2023-02-07T04:53:21;32.80;;;13.68;;
25717;SDS011;13574;52.040;5.692;2023-02-07T04:55:47;34.13;;;13.55;;
25717;SDS011;13574;52.040;5.692;2023-02-07T04:58:17;27.63;;;10.93;;
25717;SDS011;13574;52.040;5.692;2023-02-07T05:00:43;32.67;;;14.57;;
25717;SDS011;13574;52.040;5.692;2023-02-07T05:03:10;41.25;;;15.50;;
25717;SDS011;13574;52.040;5.692;2023-02-07T05:05:39;40.63;;;16.02;;
25717;SDS011;13574;52.040;5.692;2023-02-07T05:08:06;38.92;;;14.88;;
25717;SDS011;13574;52.040;5.692;2023-02-07T05:10:32;41.05;;;15.65;;
25717;SDS011;13574;52.040;5.692;2023-02-07T05:12:58;41.60;;;15.98;;
25717;SDS011;13574;52.040;5.692;2023-02-07T05:15:24;43.45;;;16.05;;
25717;SDS011;13574;52.040;5.692;2023-02-07T05:17:50;38.10;;;16.15;;
25717;SDS011;13574;52.040;5.692;2023-02-07T05:20:16;37.50;;;15.45;;
25717;SDS011;13574;52.040;5.692;2023-02-07T05:22:42;40.30;;;15.70;;
25717;SDS011;13574;52.040;5.692;2023-02-07T05:25:08;36.38;;;15.13;;
25717;SDS011;13574;52.040;5.692;2023-02-07T05:27:37;39.50;;;15.98;;
25717;SDS011;13574;52.040;5.692;2023-02-07T05:30:03;41.90;;;16.55;;
25717;SDS011;13574;52.040;5.692;2023-02-07T05:32:29;39.70;;;16.15;;
25717;SDS011;13574;52.040;5.692;2023-02-07T05:35:13;39.38;;;16.77;;
25717;SDS011;13574;52.040;5.692;2023-02-07T05:37:39;39.00;;;14.88;;
25717;SDS011;13574;52.040;5.692;2023-02-07T05:40:05;39.25;;;15.52;;
25717;SDS011;13574;52.040;5.692;2023-02-07T05:42:31;44.78;;;17.42;;
25717;SDS011;13574;52.040;5.692;2023-02-07T05:44:57;43.58;;;16.00;;
25717;SDS011;13574;52.040;5.692;2023-02-07T05:47:22;40.88;;;16.55;;
25717;SDS011;13574;52.040;5.692;2023-02-07T05:49:48;38.95;;;17.23;;
25717;SDS011;13574;52.040;5.692;2023-02-07T05:52:14;40.05;;;17.00;;
25717;SDS011;13574;52.040;5.692;2023-02-07T05:54:39;46.13;;;18.00;;
25717;SDS011;13574;52.040;5.692;2023-02-07T05:57:05;44.00;;;18.33;;
25717;SDS011;13574;52.040;5.692;2023-02-07T05:59:31;41.35;;;17.75;;
25717;SDS011;13574;52.040;5.692;2023-02-07T06:01:56;39.78;;;17.42;;
25717;SDS011;13574;52.040;5.692;2023-02-07T06:04:22;45.55;;;17.85;;
25717;SDS011;13574;52.040;5.692;2023-02-07T06:06:48;43.45;;;17.33;;
25717;SDS011;13574;52.040;5.692;2023-02-07T06:09:13;39.80;;;17.27;;
25717;SDS011;13574;52.040;5.692;2023-02-07T06:11:39;36.08;;;16.95;;
25717;SDS011;13574;52.040;5.692;2023-02-07T06:14:05;45.67;;;18.38;;
25717;SDS011;13574;52.040;5.692;2023-02-07T06:16:30;39.67;;;16.80;;
25717;SDS011;13574;52.040;5.692;2023-02-07T06:18:56;43.28;;;17.45;;
25717;SDS011;13574;52.040;5.692;2023-02-07T06:21:22;47.97;;;17.75;;
25717;SDS011;13574;52.040;5.692;2023-02-07T06:23:47;46.10;;;17.65;;
25717;SDS011;13574;52.040;5.692;2023-02-07T06:26:14;45.28;;;18.58;;
25717;SDS011;13574;52.040;5.692;2023-02-07T06:28:39;44.88;;;17.55;;
25717;SDS011;13574;52.040;5.692;2023-02-07T06:31:05;41.55;;;18.10;;
25717;SDS011;13574;52.040;5.692;2023-02-07T06:33:31;49.92;;;18.65;;
25717;SDS011;13574;52.040;5.692;2023-02-07T06:35:59;49.92;;;19.35;;
25717;SDS011;13574;52.040;5.692;2023-02-07T06:38:25;46.47;;;17.92;;
25717;SDS011;13574;52.040;5.692;2023-02-07T06:40:54;46.28;;;18.58;;
25717;SDS011;13574;52.040;5.692;2023-02-07T06:43:25;42.97;;;17.88;;
25717;SDS011;13574;52.040;5.692;2023-02-07T06:45:50;50.10;;;19.02;;
25717;SDS011;13574;52.040;5.692;2023-02-07T06:48:16;45.35;;;18.20;;
25717;SDS011;13574;52.040;5.692;2023-02-07T06:50:42;42.95;;;17.55;;
25717;SDS011;13574;52.040;5.692;2023-02-07T06:53:07;37.33;;;17.02;;
25717;SDS011;13574;52.040;5.692;2023-02-07T06:55:37;43.42;;;17.50;;
25717;SDS011;13574;52.040;5.692;2023-02-07T06:58:03;39.03;;;16.90;;
25717;SDS011;13574;52.040;5.692;2023-02-07T07:00:31;41.38;;;17.83;;
25717;SDS011;13574;52.040;5.692;2023-02-07T07:02:57;40.75;;;17.15;;
25717;SDS011;13574;52.040;5.692;2023-02-07T07:05:24;44.63;;;17.35;;
25717;SDS011;13574;52.040;5.692;2023-02-07T07:07:51;39.50;;;17.38;;
25717;SDS011;13574;52.040;5.692;2023-02-07T07:10:16;45.10;;;18.92;;
25717;SDS011;13574;52.040;5.692;2023-02-07T07:12:42;46.58;;;19.13;;
25717;SDS011;13574;52.040;5.692;2023-02-07T07:15:08;48.15;;;18.77;;
25717;SDS011;13574;52.040;5.692;2023-02-07T07:17:34;46.58;;;17.63;;
25717;SDS011;13574;52.040;5.692;2023-02-07T07:20:03;43.65;;;18.50;;
25717;SDS011;13574;52.040;5.692;2023-02-07T07:22:35;43.03;;;18.08;;
25717;SDS011;13574;52.040;5.692;2023-02-07T07:25:01;45.40;;;18.27;;
25717;SDS011;13574;52.040;5.692;2023-02-07T07:27:28;42.00;;;18.08;;
25717;SDS011;13574;52.040;5.692;2023-02-07T07:29:57;49.40;;;18.85;;
25717;SDS011;13574;52.040;5.692;2023-02-07T07:32:22;51.75;;;18.92;;
25717;SDS011;13574;52.040;5.692;2023-02-07T07:34:48;56.13;;;20.83;;
25717;SDS011;13574;52.040;5.692;2023-02-07T07:37:16;49.90;;;19.55;;
25717;SDS011;13574;52.040;5.692;2023-02-07T07:39:42;52.17;;;19.17;;
25717;SDS011;13574;52.040;5.692;2023-02-07T07:42:08;51.22;;;19.55;;
25717;SDS011;13574;52.040;5.692;2023-02-07T07:44:34;53.22;;;20.08;;
25717;SDS011;13574;52.040;5.692;2023-02-07T07:47:00;47.72;;;18.95;;
25717;SDS011;13574;52.040;5.692;2023-02-07T07:49:25;51.08;;;20.17;;
25717;SDS011;13574;52.040;5.692;2023-02-07T07:51:51;46.42;;;19.40;;
25717;SDS011;13574;52.040;5.692;2023-02-07T07:54:17;44.95;;;20.13;;
25717;SDS011;13574;52.040;5.692;2023-02-07T07:56:46;48.20;;;20.63;;
25717;SDS011;13574;52.040;5.692;2023-02-07T07:59:11;54.88;;;21.52;;
25717;SDS011;13574;52.040;5.692;2023-02-07T08:01:37;51.75;;;21.10;;
25717;SDS011;13574;52.040;5.692;2023-02-07T08:04:03;53.78;;;22.02;;
25717;SDS011;13574;52.040;5.692;2023-02-07T08:06:29;58.25;;;21.83;;
25717;SDS011;13574;52.040;5.692;2023-02-07T08:08:55;53.40;;;21.67;;
25717;SDS011;13574;52.040;5.692;2023-02-07T08:11:21;58.13;;;22.95;;
25717;SDS011;13574;52.040;5.692;2023-02-07T08:13:47;61.40;;;22.27;;
25717;SDS011;13574;52.040;5.692;2023-02-07T08:16:13;53.25;;;22.58;;
25717;SDS011;13574;52.040;5.692;2023-02-07T08:18:40;50.50;;;22.38;;
25717;SDS011;13574;52.040;5.692;2023-02-07T08:21:06;68.32;;;23.50;;
25717;SDS011;13574;52.040;5.692;2023-02-07T08:23:31;56.35;;;21.77;;
25717;SDS011;13574;52.040;5.692;2023-02-07T08:25:58;58.20;;;23.05;;
25717;SDS011;13574;52.040;5.692;2023-02-07T08:28:24;54.55;;;23.25;;
25717;SDS011;13574;52.040;5.692;2023-02-07T08:30:50;61.58;;;23.40;;
25717;SDS011;13574;52.040;5.692;2023-02-07T08:33:16;58.13;;;21.85;;
25717;SDS011;13574;52.040;5.692;2023-02-07T08:35:42;54.97;;;22.00;;
25717;SDS011;13574;52.040;5.692;2023-02-07T08:38:08;53.40;;;21.67;;
25717;SDS011;13574;52.040;5.692;2023-02-07T08:40:34;48.47;;;19.52;;
25717;SDS011;13574;52.040;5.692;2023-02-07T08:43:00;52.10;;;21.60;;
25717;SDS011;13574;52.040;5.692;2023-02-07T08:45:26;51.80;;;21.15;;
25717;SDS011;13574;52.040;5.692;2023-02-07T08:47:52;49.15;;;20.85;;
25717;SDS011;13574;52.040;5.692;2023-02-07T08:50:18;49.38;;;21.25;;
25717;SDS011;13574;52.040;5.692;2023-02-07T08:52:43;51.45;;;20.85;;
25717;SDS011;13574;52.040;5.692;2023-02-07T08:55:10;45.03;;;19.23;;
25717;SDS011;13574;52.040;5.692;2023-02-07T08:57:36;48.58;;;20.38;;
25717;SDS011;13574;52.040;5.692;2023-02-07T09:00:03;45.78;;;19.83;;
25717;SDS011;13574;52.040;5.692;2023-02-07T09:02:30;46.72;;;20.30;;
25717;SDS011;13574;52.040;5.692;2023-02-07T09:04:55;47.38;;;20.33;;
25717;SDS011;13574;52.040;5.692;2023-02-07T09:07:21;44.83;;;20.15;;
25717;SDS011;13574;52.040;5.692;2023-02-07T09:09:47;56.38;;;20.52;;
25717;SDS011;13574;52.040;5.692;2023-02-07T09:12:15;48.65;;;20.58;;
25717;SDS011;13574;52.040;5.692;2023-02-07T09:14:41;52.38;;;20.77;;
25717;SDS011;13574;52.040;5.692;2023-02-07T09:17:06;45.90;;;19.65;;
25717;SDS011;13574;52.040;5.692;2023-02-07T09:19:33;46.75;;;19.63;;
25717;SDS011;13574;52.040;5.692;2023-02-07T09:21:59;46.20;;;19.15;;
25717;SDS011;13574;52.040;5.692;2023-02-07T09:24:25;38.03;;;17.42;;
25717;SDS011;13574;52.040;5.692;2023-02-07T09:26:51;39.83;;;19.02;;
25717;SDS011;13574;52.040;5.692;2023-02-07T09:29:17;46.17;;;20.20;;
25717;SDS011;13574;52.040;5.692;2023-02-07T09:31:46;45.45;;;19.30;;
25717;SDS011;13574;52.040;5.692;2023-02-07T09:34:14;46.30;;;20.27;;
25717;SDS011;13574;52.040;5.692;2023-02-07T09:36:41;42.63;;;19.15;;
25717;SDS011;13574;52.040;5.692;2023-02-07T09:39:08;39.47;;;19.00;;
25717;SDS011;13574;52.040;5.692;2023-02-07T09:47:23;44.67;;;18.30;;
25717;SDS011;13574;52.040;5.692;2023-02-07T09:52:21;49.53;;;19.47;;
25717;SDS011;13574;52.040;5.692;2023-02-07T09:54:53;41.03;;;17.33;;
25717;SDS011;13574;52.040;5.692;2023-02-07T09:57:26;38.58;;;18.20;;
25717;SDS011;13574;52.040;5.692;2023-02-07T10:00:03;27.67;;;13.52;;
25717;SDS011;13574;52.040;5.692;2023-02-07T10:02:43;40.90;;;17.95;;
25717;SDS011;13574;52.040;5.692;2023-02-07T10:05:22;42.92;;;18.25;;
25717;SDS011;13574;52.040;5.692;2023-02-07T10:07:58;43.90;;;19.67;;
25717;SDS011;13574;52.040;5.692;2023-02-07T10:31:42;38.25;;;15.75;;
25717;SDS011;13574;52.040;5.692;2023-02-07T10:34:12;38.05;;;16.30;;
25717;SDS011;13574;52.040;5.692;2023-02-07T10:36:45;31.77;;;15.57;;
25717;SDS011;13574;52.040;5.692;2023-02-07T10:39:36;31.35;;;15.00;;
25717;SDS011;13574;52.040;5.692;2023-02-07T10:44:35;32.60;;;15.23;;
25717;SDS011;13574;52.040;5.692;2023-02-07T10:47:02;31.88;;;14.80;;
25717;SDS011;13574;52.040;5.692;2023-02-07T10:49:30;32.83;;;16.10;;
25717;SDS011;13574;52.040;5.692;2023-02-07T10:51:58;33.72;;;14.75;;
25717;SDS011;13574;52.040;5.692;2023-02-07T10:54:29;27.05;;;13.32;;
25717;SDS011;13574;52.040;5.692;2023-02-07T10:57:18;24.60;;;11.93;;
25717;SDS011;13574;52.040;5.692;2023-02-07T10:59:44;26.40;;;13.18;;
25717;SDS011;13574;52.040;5.692;2023-02-07T11:02:32;24.00;;;11.73;;
25717;SDS011;13574;52.040;5.692;2023-02-07T11:08:42;26.65;;;12.13;;
25717;SDS011;13574;52.040;5.692;2023-02-07T11:10:40;24.48;;;11.30;;
25717;SDS011;13574;52.040;5.692;2023-02-07T11:13:12;24.17;;;11.27;;
25717;SDS011;13574;52.040;5.692;2023-02-07T11:15:56;21.13;;;10.20;;
25717;SDS011;13574;52.040;5.692;2023-02-07T11:19:01;18.88;;;9.43;;
25717;SDS011;13574;52.040;5.692;2023-02-07T11:24:04;12.00;;;6.47;;
25717;SDS011;13574;52.040;5.692;2023-02-07T11:26:33;17.33;;;7.82;;
25717;SDS011;13574;52.040;5.692;2023-02-07T11:31:37;17.52;;;8.32;;
25717;SDS011;13574;52.040;5.692;2023-02-07T11:34:08;19.10;;;8.70;;
25717;SDS011;13574;52.040;5.692;2023-02-07T11:36:51;15.82;;;7.75;;
25717;SDS011;13574;52.040;5.692;2023-02-07T11:39:19;18.23;;;7.88;;
25717;SDS011;13574;52.040;5.692;2023-02-07T11:41:53;13.15;;;7.03;;
25717;SDS011;13574;52.040;5.692;2023-02-07T11:44:24;14.32;;;7.60;;
25717;SDS011;13574;52.040;5.692;2023-02-07T11:46:51;14.02;;;7.22;;
25717;SDS011;13574;52.040;5.692;2023-02-07T11:52:01;15.30;;;7.65;;
25717;SDS011;13574;52.040;5.692;2023-02-07T11:54:28;17.10;;;8.15;;
25717;SDS011;13574;52.040;5.692;2023-02-07T11:57:00;13.90;;;7.40;;
25717;SDS011;13574;52.040;5.692;2023-02-07T12:00:13;14.50;;;7.55;;
25717;SDS011;13574;52.040;5.692;2023-02-07T12:02:32;15.32;;;7.32;;
25717;SDS011;13574;52.040;5.692;2023-02-07T12:05:41;14.82;;;7.25;;
25717;SDS011;13574;52.040;5.692;2023-02-07T12:07:51;12.88;;;6.80;;
25717;SDS011;13574;52.040;5.692;2023-02-07T12:10:24;14.98;;;7.30;;
25717;SDS011;13574;52.040;5.692;2023-02-07T12:13:04;16.13;;;7.65;;
25717;SDS011;13574;52.040;5.692;2023-02-07T12:15:35;15.80;;;7.88;;
25717;SDS011;13574;52.040;5.692;2023-02-07T12:18:30;15.13;;;7.63;;
25717;SDS011;13574;52.040;5.692;2023-02-07T12:21:19;14.23;;;7.55;;
25717;SDS011;13574;52.040;5.692;2023-02-07T12:24:04;12.48;;;7.18;;
25717;SDS011;13574;52.040;5.692;2023-02-07T12:26:39;12.88;;;7.20;;
25717;SDS011;13574;52.040;5.692;2023-02-07T12:32:30;12.32;;;6.47;;
25717;SDS011;13574;52.040;5.692;2023-02-07T12:35:16;12.10;;;6.32;;
25717;SDS011;13574;52.040;5.692;2023-02-07T12:37:52;13.23;;;6.38;;
25717;SDS011;13574;52.040;5.692;2023-02-07T12:40:34;13.32;;;6.35;;
25717;SDS011;13574;52.040;5.692;2023-02-07T12:45:51;13.45;;;6.60;;
25717;SDS011;13574;52.040;5.692;2023-02-07T12:51:24;14.20;;;7.05;;
25717;SDS011;13574;52.040;5.692;2023-02-07T12:57:06;13.65;;;6.90;;
25717;SDS011;13574;52.040;5.692;2023-02-07T13:02:48;14.20;;;6.50;;
25717;SDS011;13574;52.040;5.692;2023-02-07T13:05:48;8.45;;;5.25;;
25717;SDS011;13574;52.040;5.692;2023-02-07T13:11:54;10.10;;;5.88;;
25717;SDS011;13574;52.040;5.692;2023-02-07T13:20:34;9.55;;;4.78;;
25717;SDS011;13574;52.040;5.692;2023-02-07T13:23:09;8.23;;;5.18;;
25717;SDS011;13574;52.040;5.692;2023-02-07T13:25:43;9.45;;;5.32;;
25717;SDS011;13574;52.040;5.692;2023-02-07T13:31:00;12.07;;;5.53;;
25717;SDS011;13574;52.040;5.692;2023-02-07T13:36:07;9.77;;;5.50;;
25717;SDS011;13574;52.040;5.692;2023-02-07T13:38:44;11.70;;;5.53;;
25717;SDS011;13574;52.040;5.692;2023-02-07T13:41:27;10.57;;;5.55;;
25717;SDS011;13574;52.040;5.692;2023-02-07T13:49:31;18.08;;;6.15;;
25717;SDS011;13574;52.040;5.692;2023-02-07T14:00:21;11.00;;;5.45;;
25717;SDS011;13574;52.040;5.692;2023-02-07T14:02:53;11.23;;;5.93;;
25717;SDS011;13574;52.040;5.692;2023-02-07T14:05:25;15.32;;;5.38;;
25717;SDS011;13574;52.040;5.692;2023-02-07T14:10:36;9.65;;;5.32;;
25717;SDS011;13574;52.040;5.692;2023-02-07T14:13:31;10.95;;;5.75;;
25717;SDS011;13574;52.040;5.692;2023-02-07T14:16:05;11.52;;;6.00;;
25717;SDS011;13574;52.040;5.692;2023-02-07T14:18:37;11.13;;;5.90;;
25717;SDS011;13574;52.040;5.692;2023-02-07T14:31:48;10.75;;;5.80;;
25717;SDS011;13574;52.040;5.692;2023-02-07T14:34:18;12.98;;;6.22;;
25717;SDS011;13574;52.040;5.692;2023-02-07T14:36:48;10.25;;;6.20;;
25717;SDS011;13574;52.040;5.692;2023-02-07T14:41:48;9.60;;;5.40;;
25717;SDS011;13574;52.040;5.692;2023-02-07T14:47:01;13.20;;;6.10;;
25717;SDS011;13574;52.040;5.692;2023-02-07T14:49:35;12.63;;;6.68;;
25717;SDS011;13574;52.040;5.692;2023-02-07T14:52:13;14.40;;;7.03;;
25717;SDS011;13574;52.040;5.692;2023-02-07T14:54:54;13.55;;;6.68;;
25717;SDS011;13574;52.040;5.692;2023-02-07T14:57:49;11.48;;;6.35;;
25717;SDS011;13574;52.040;5.692;2023-02-07T15:02:53;11.52;;;6.82;;
25717;SDS011;13574;52.040;5.692;2023-02-07T15:05:34;11.75;;;7.35;;
25717;SDS011;13574;52.040;5.692;2023-02-07T15:10:31;13.95;;;7.10;;
25717;SDS011;13574;52.040;5.692;2023-02-07T15:13:01;13.43;;;6.40;;
25717;SDS011;13574;52.040;5.692;2023-02-07T15:15:42;11.35;;;6.30;;
25717;SDS011;13574;52.040;5.692;2023-02-07T15:18:12;14.90;;;5.85;;
25717;SDS011;13574;52.040;5.692;2023-02-07T15:20:39;9.43;;;4.95;;
25717;SDS011;13574;52.040;5.692;2023-02-07T15:23:05;9.57;;;5.70;;
25717;SDS011;13574;52.040;5.692;2023-02-07T15:25:38;10.77;;;5.63;;
25717;SDS011;13574;52.040;5.692;2023-02-07T15:28:27;9.25;;;5.47;;
25717;SDS011;13574;52.040;5.692;2023-02-07T15:33:37;8.48;;;5.45;;
25717;SDS011;13574;52.040;5.692;2023-02-07T15:36:29;8.63;;;5.30;;
25717;SDS011;13574;52.040;5.692;2023-02-07T15:38:58;9.52;;;5.75;;
25717;SDS011;13574;52.040;5.692;2023-02-07T15:41:26;11.27;;;5.90;;
25717;SDS011;13574;52.040;5.692;2023-02-07T15:43:55;10.82;;;6.30;;
25717;SDS011;13574;52.040;5.692;2023-02-07T15:46:48;10.13;;;6.28;;
25717;SDS011;13574;52.040;5.692;2023-02-07T15:49:31;11.85;;;5.65;;
25717;SDS011;13574;52.040;5.692;2023-02-07T15:54:42;13.30;;;7.13;;
25717;SDS011;13574;52.040;5.692;2023-02-07T15:57:12;11.55;;;6.53;;
25717;SDS011;13574;52.040;5.692;2023-02-07T15:59:45;12.77;;;7.18;;
25717;SDS011;13574;52.040;5.692;2023-02-07T16:02:25;13.47;;;7.20;;
25717;SDS011;13574;52.040;5.692;2023-02-07T16:04:57;10.98;;;6.63;;
25717;SDS011;13574;52.040;5.692;2023-02-07T16:07:23;13.93;;;7.32;;
25717;SDS011;13574;52.040;5.692;2023-02-07T16:09:49;12.60;;;7.20;;
25717;SDS011;13574;52.040;5.692;2023-02-07T16:14:58;15.32;;;7.50;;
25717;SDS011;13574;52.040;5.692;2023-02-07T16:17:35;11.70;;;6.95;;
25717;SDS011;13574;52.040;5.692;2023-02-07T16:20:14;13.27;;;7.55;;
25717;SDS011;13574;52.040;5.692;2023-02-07T16:22:40;14.48;;;6.70;;
25717;SDS011;13574;52.040;5.692;2023-02-07T16:25:11;14.75;;;7.05;;
25717;SDS011;13574;52.040;5.692;2023-02-07T16:27:45;16.65;;;7.47;;
25717;SDS011;13574;52.040;5.692;2023-02-07T16:30:17;13.80;;;7.75;;
25717;SDS011;13574;52.040;5.692;2023-02-07T16:32:54;12.88;;;7.00;;
25717;SDS011;13574;52.040;5.692;2023-02-07T16:35:21;16.55;;;7.82;;
25717;SDS011;13574;52.040;5.692;2023-02-07T16:37:49;12.30;;;7.68;;
25717;SDS011;13574;52.040;5.692;2023-02-07T16:40:15;13.40;;;7.68;;
25717;SDS011;13574;52.040;5.692;2023-02-07T16:42:42;14.85;;;8.27;;
25717;SDS011;13574;52.040;5.692;2023-02-07T16:45:16;14.75;;;8.13;;
25717;SDS011;13574;52.040;5.692;2023-02-07T16:47:49;18.75;;;9.52;;
25717;SDS011;13574;52.040;5.692;2023-02-07T16:50:19;16.95;;;9.05;;
25717;SDS011;13574;52.040;5.692;2023-02-07T16:52:47;17.30;;;9.27;;
25717;SDS011;13574;52.040;5.692;2023-02-07T16:55:13;19.60;;;9.13;;
25717;SDS011;13574;52.040;5.692;2023-02-07T16:57:41;17.77;;;9.68;;
25717;SDS011;13574;52.040;5.692;2023-02-07T17:00:22;16.45;;;8.73;;
25717;SDS011;13574;52.040;5.692;2023-02-07T17:02:58;19.00;;;9.02;;
25717;SDS011;13574;52.040;5.692;2023-02-07T17:05:24;15.23;;;8.45;;
25717;SDS011;13574;52.040;5.692;2023-02-07T17:07:50;16.40;;;8.48;;
25717;SDS011;13574;52.040;5.692;2023-02-07T17:10:26;15.35;;;8.65;;
25717;SDS011;13574;52.040;5.692;2023-02-07T17:12:53;15.25;;;8.80;;
25717;SDS011;13574;52.040;5.692;2023-02-07T17:15:19;16.55;;;9.45;;
25717;SDS011;13574;52.040;5.692;2023-02-07T17:17:46;15.75;;;8.57;;
25717;SDS011;13574;52.040;5.692;2023-02-07T17:20:16;17.92;;;9.30;;